sensor_id;sensor_type;location;lat;lon;timestamp;pressure;altitude;pressure_sealevel;temperature;humidity
11499;BME280;5806;48.748;9.278;2023-04-06T00:01:22;101288.08;;;2.99;61.21
11499;BME280;5806;48.748;9.278;2023-04-06T00:03:50;101289.10;;;2.94;61.16
11499;BME280;5806;48.748;9.278;2023-04-06T00:06:17;101291.72;;;3.06;60.88
11499;BME280;5806;48.748;9.278;2023-04-06T00:08:45;101283.66;;;2.76;61.62
11499;BME280;5806;48.748;9.278;2023-04-06T00:11:12;101287.10;;;2.92;61.42
11499;BME280;5806;48.748;9.278;2023-04-06T00:13:40;101291.70;;;2.84;61.45
11499;BME280;5806;48.748;9.278;2023-04-06T00:16:07;101289.91;;;2.76;61.63
11499;BME280;5806;48.748;9.278;2023-04-06T00:18:35;101287.25;;;2.95;61.57
11499;BME280;5806;48.748;9.278;2023-04-06T00:21:03;101279.97;;;2.99;61.80
11499;BME280;5806;48.748;9.278;2023-04-06T00:23:31;101284.31;;;2.82;62.49
11499;BME280;5806;48.748;9.278;2023-04-06T00:25:59;101277.58;;;2.78;62.17
11499;BME280;5806;48.748;9.278;2023-04-06T00:28:27;101277.63;;;2.96;61.89
11499;BME280;5806;48.748;9.278;2023-04-06T00:30:56;101269.40;;;2.90;61.84
11499;BME280;5806;48.748;9.278;2023-04-06T00:33:24;101272.97;;;2.82;62.77
11499;BME280;5806;48.748;9.278;2023-04-06T00:35:52;101272.25;;;2.66;62.83
11499;BME280;5806;48.748;9.278;2023-04-06T00:38:19;101272.53;;;2.75;62.55
11499;BME280;5806;48.748;9.278;2023-04-06T00:40:47;101274.41;;;2.70;63.14
11499;BME280;5806;48.748;9.278;2023-04-06T00:43:14;101274.68;;;2.83;62.56
11499;BME280;5806;48.748;9.278;2023-04-06T00:45:42;101274.56;;;2.77;62.54
11499;BME280;5806;48.748;9.278;2023-04-06T00:48:10;101264.90;;;2.78;62.65
11499;BME280;5806;48.748;9.278;2023-04-06T00:50:37;101259.00;;;2.52;62.76
11499;BME280;5806;48.748;9.278;2023-04-06T00:53:05;101259.44;;;2.86;62.25
11499;BME280;5806;48.748;9.278;2023-04-06T00:55:32;101261.20;;;2.79;61.33
11499;BME280;5806;48.748;9.278;2023-04-06T00:58:02;101253.16;;;2.71;61.70
11499;BME280;5806;48.748;9.278;2023-04-06T01:00:30;101246.45;;;2.63;61.74
11499;BME280;5806;48.748;9.278;2023-04-06T01:02:59;101247.11;;;2.88;61.15
11499;BME280;5806;48.748;9.278;2023-04-06T01:05:28;101245.97;;;2.56;62.16
11499;BME280;5806;48.748;9.278;2023-04-06T01:07:55;101241.23;;;2.84;61.55
11499;BME280;5806;48.748;9.278;2023-04-06T01:10:28;101233.92;;;2.66;62.01
11499;BME280;5806;48.748;9.278;2023-04-06T01:12:55;101234.45;;;2.66;62.78
11499;BME280;5806;48.748;9.278;2023-04-06T01:15:24;101228.73;;;2.65;62.71
11499;BME280;5806;48.748;9.278;2023-04-06T01:17:51;101225.12;;;2.72;62.37
11499;BME280;5806;48.748;9.278;2023-04-06T01:20:19;101221.38;;;2.51;63.52
11499;BME280;5806;48.748;9.278;2023-04-06T01:22:46;101226.37;;;2.62;63.41
11499;BME280;5806;48.748;9.278;2023-04-06T01:25:14;101213.40;;;2.57;63.26
11499;BME280;5806;48.748;9.278;2023-04-06T01:27:41;101219.18;;;2.54;63.28
11499;BME280;5806;48.748;9.278;2023-04-06T01:30:09;101212.87;;;2.62;63.09
11499;BME280;5806;48.748;9.278;2023-04-06T01:32:38;101205.83;;;2.57;63.07
11499;BME280;5806;48.748;9.278;2023-04-06T01:35:06;101197.47;;;2.40;63.92
11499;BME280;5806;48.748;9.278;2023-04-06T01:37:34;101204.50;;;2.53;63.88
11499;BME280;5806;48.748;9.278;2023-04-06T01:40:01;101201.05;;;2.36;64.08
11499;BME280;5806;48.748;9.278;2023-04-06T01:42:29;101197.30;;;2.41;63.98
11499;BME280;5806;48.748;9.278;2023-04-06T01:44:56;101189.41;;;2.36;64.07
11499;BME280;5806;48.748;9.278;2023-04-06T01:47:24;101193.91;;;2.47;64.08
11499;BME280;5806;48.748;9.278;2023-04-06T01:49:51;101194.03;;;2.54;64.15
11499;BME280;5806;48.748;9.278;2023-04-06T01:52:19;101201.07;;;2.59;63.77
11499;BME280;5806;48.748;9.278;2023-04-06T01:54:47;101191.67;;;2.51;64.06
11499;BME280;5806;48.748;9.278;2023-04-06T01:57:14;101193.73;;;2.49;63.95
11499;BME280;5806;48.748;9.278;2023-04-06T01:59:42;101191.73;;;2.43;64.23
11499;BME280;5806;48.748;9.278;2023-04-06T02:02:09;101193.70;;;2.53;64.15
11499;BME280;5806;48.748;9.278;2023-04-06T02:04:38;101189.51;;;2.50;63.98
11499;BME280;5806;48.748;9.278;2023-04-06T02:07:06;101188.03;;;2.40;64.31
11499;BME280;5806;48.748;9.278;2023-04-06T02:09:33;101189.70;;;2.45;63.80
11499;BME280;5806;48.748;9.278;2023-04-06T02:12:01;101182.98;;;2.41;63.62
11499;BME280;5806;48.748;9.278;2023-04-06T02:14:29;101193.08;;;2.43;63.42
11499;BME280;5806;48.748;9.278;2023-04-06T02:16:56;101188.33;;;2.22;63.84
11499;BME280;5806;48.748;9.278;2023-04-06T02:19:24;101188.26;;;2.34;63.75
11499;BME280;5806;48.748;9.278;2023-04-06T02:21:51;101185.66;;;2.18;64.92
11499;BME280;5806;48.748;9.278;2023-04-06T02:24:19;101184.41;;;2.29;64.09
11499;BME280;5806;48.748;9.278;2023-04-06T02:26:46;101184.61;;;2.23;64.45
11499;BME280;5806;48.748;9.278;2023-04-06T02:29:14;101186.71;;;2.05;64.96
11499;BME280;5806;48.748;9.278;2023-04-06T02:31:41;101187.45;;;2.26;64.31
11499;BME280;5806;48.748;9.278;2023-04-06T02:34:09;101189.37;;;2.13;64.95
11499;BME280;5806;48.748;9.278;2023-04-06T02:36:38;101182.03;;;2.30;64.20
11499;BME280;5806;48.748;9.278;2023-04-06T02:39:05;101183.80;;;2.15;64.65
11499;BME280;5806;48.748;9.278;2023-04-06T02:41:33;101180.69;;;2.30;64.41
11499;BME280;5806;48.748;9.278;2023-04-06T02:44:00;101179.03;;;2.25;64.50
11499;BME280;5806;48.748;9.278;2023-04-06T02:46:28;101177.35;;;2.20;63.70
11499;BME280;5806;48.748;9.278;2023-04-06T02:48:56;101183.25;;;2.23;63.96
11499;BME280;5806;48.748;9.278;2023-04-06T02:51:25;101181.08;;;2.19;64.03
11499;BME280;5806;48.748;9.278;2023-04-06T02:53:52;101177.69;;;2.25;64.04
11499;BME280;5806;48.748;9.278;2023-04-06T02:56:20;101171.56;;;2.00;65.44
11499;BME280;5806;48.748;9.278;2023-04-06T02:58:48;101173.13;;;2.21;64.77
11499;BME280;5806;48.748;9.278;2023-04-06T03:01:15;101165.48;;;2.06;65.06
11499;BME280;5806;48.748;9.278;2023-04-06T03:03:43;101169.13;;;2.13;65.23
11499;BME280;5806;48.748;9.278;2023-04-06T03:06:11;101169.88;;;2.03;65.31
11499;BME280;5806;48.748;9.278;2023-04-06T03:08:38;101164.09;;;2.14;65.45
11499;BME280;5806;48.748;9.278;2023-04-06T03:11:06;101164.78;;;2.08;65.77
11499;BME280;5806;48.748;9.278;2023-04-06T03:13:33;101168.18;;;2.06;65.38
11499;BME280;5806;48.748;9.278;2023-04-06T03:16:01;101166.45;;;2.09;65.62
11499;BME280;5806;48.748;9.278;2023-04-06T03:18:28;101167.33;;;2.06;65.26
11499;BME280;5806;48.748;9.278;2023-04-06T03:20:56;101167.54;;;1.96;65.53
11499;BME280;5806;48.748;9.278;2023-04-06T03:23:23;101167.52;;;2.00;65.66
11499;BME280;5806;48.748;9.278;2023-04-06T03:25:51;101166.65;;;2.04;65.00
11499;BME280;5806;48.748;9.278;2023-04-06T03:28:18;101172.16;;;2.18;64.72
11499;BME280;5806;48.748;9.278;2023-04-06T03:30:46;101165.84;;;1.99;64.91
11499;BME280;5806;48.748;9.278;2023-04-06T03:33:13;101165.48;;;2.06;64.10
11499;BME280;5806;48.748;9.278;2023-04-06T03:35:40;101167.87;;;1.97;64.39
11499;BME280;5806;48.748;9.278;2023-04-06T03:38:08;101165.72;;;1.93;64.69
11499;BME280;5806;48.748;9.278;2023-04-06T03:40:35;101169.53;;;2.06;63.67
11499;BME280;5806;48.748;9.278;2023-04-06T03:43:04;101171.66;;;1.80;65.49
11499;BME280;5806;48.748;9.278;2023-04-06T03:45:32;101177.20;;;1.83;65.29
11499;BME280;5806;48.748;9.278;2023-04-06T03:47:59;101177.84;;;1.54;65.31
11499;BME280;5806;48.748;9.278;2023-04-06T03:50:26;101180.08;;;1.81;65.44
11499;BME280;5806;48.748;9.278;2023-04-06T03:52:54;101173.01;;;1.80;65.13
11499;BME280;5806;48.748;9.278;2023-04-06T03:55:21;101181.87;;;1.58;65.65
11499;BME280;5806;48.748;9.278;2023-04-06T03:57:49;101179.08;;;1.82;65.34
11499;BME280;5806;48.748;9.278;2023-04-06T04:00:16;101171.48;;;1.82;64.85
11499;BME280;5806;48.748;9.278;2023-04-06T04:02:44;101173.48;;;1.37;66.15
11499;BME280;5806;48.748;9.278;2023-04-06T04:05:11;101169.93;;;1.49;65.78
11499;BME280;5806;48.748;9.278;2023-04-06T04:07:39;101170.39;;;1.60;64.93
11499;BME280;5806;48.748;9.278;2023-04-06T04:10:06;101179.50;;;1.59;65.21
11499;BME280;5806;48.748;9.278;2023-04-06T04:12:34;101181.30;;;1.71;64.68
11499;BME280;5806;48.748;9.278;2023-04-06T04:15:02;101181.45;;;1.73;64.81
11499;BME280;5806;48.748;9.278;2023-04-06T04:17:30;101171.38;;;1.67;64.94
11499;BME280;5806;48.748;9.278;2023-04-06T04:19:57;101178.95;;;1.76;64.96
11499;BME280;5806;48.748;9.278;2023-04-06T04:22:25;101177.02;;;1.42;65.52
11499;BME280;5806;48.748;9.278;2023-04-06T04:24:54;101170.91;;;1.60;65.18
11499;BME280;5806;48.748;9.278;2023-04-06T04:27:21;101177.19;;;1.40;65.70
11499;BME280;5806;48.748;9.278;2023-04-06T04:29:49;101165.01;;;1.56;65.32
11499;BME280;5806;48.748;9.278;2023-04-06T04:32:16;101176.19;;;1.33;65.99
11499;BME280;5806;48.748;9.278;2023-04-06T04:34:43;101175.16;;;1.46;66.00
11499;BME280;5806;48.748;9.278;2023-04-06T04:37:11;101172.61;;;1.53;65.04
11499;BME280;5806;48.748;9.278;2023-04-06T04:39:38;101175.38;;;1.25;66.03
11499;BME280;5806;48.748;9.278;2023-04-06T04:42:06;101169.50;;;1.25;65.98
11499;BME280;5806;48.748;9.278;2023-04-06T04:44:34;101172.34;;;1.28;66.10
11499;BME280;5806;48.748;9.278;2023-04-06T04:47:01;101179.39;;;1.37;65.81
11499;BME280;5806;48.748;9.278;2023-04-06T04:49:29;101172.65;;;1.41;65.95
11499;BME280;5806;48.748;9.278;2023-04-06T04:51:56;101180.06;;;1.35;65.84
11499;BME280;5806;48.748;9.278;2023-04-06T04:54:24;101173.97;;;1.49;65.45
11499;BME280;5806;48.748;9.278;2023-04-06T04:56:51;101176.84;;;1.47;65.48
11499;BME280;5806;48.748;9.278;2023-04-06T04:59:19;101172.95;;;1.50;65.19
11499;BME280;5806;48.748;9.278;2023-04-06T05:01:46;101178.35;;;1.46;65.91
11499;BME280;5806;48.748;9.278;2023-04-06T05:04:14;101182.93;;;1.29;66.45
11499;BME280;5806;48.748;9.278;2023-04-06T05:06:41;101187.31;;;1.38;66.34
11499;BME280;5806;48.748;9.278;2023-04-06T05:09:09;101172.52;;;1.22;66.35
11499;BME280;5806;48.748;9.278;2023-04-06T05:11:36;101178.59;;;1.12;67.15
11499;BME280;5806;48.748;9.278;2023-04-06T05:14:04;101177.58;;;1.25;66.71
11499;BME280;5806;48.748;9.278;2023-04-06T05:16:33;101180.20;;;1.45;65.82
11499;BME280;5806;48.748;9.278;2023-04-06T05:19:01;101183.26;;;1.42;65.56
11499;BME280;5806;48.748;9.278;2023-04-06T05:21:29;101184.50;;;1.08;66.80
11499;BME280;5806;48.748;9.278;2023-04-06T05:23:56;101180.86;;;1.55;65.48
11499;BME280;5806;48.748;9.278;2023-04-06T05:26:24;101181.34;;;1.59;65.57
11499;BME280;5806;48.748;9.278;2023-04-06T05:28:52;101184.27;;;1.33;66.09
11499;BME280;5806;48.748;9.278;2023-04-06T05:31:20;101182.20;;;1.55;65.74
11499;BME280;5806;48.748;9.278;2023-04-06T05:33:48;101178.77;;;1.69;65.86
11499;BME280;5806;48.748;9.278;2023-04-06T05:36:16;101179.63;;;1.70;65.78
11499;BME280;5806;48.748;9.278;2023-04-06T05:38:43;101181.64;;;1.76;65.62
11499;BME280;5806;48.748;9.278;2023-04-06T05:41:11;101182.83;;;1.65;65.37
11499;BME280;5806;48.748;9.278;2023-04-06T05:43:38;101175.69;;;1.84;65.35
11499;BME280;5806;48.748;9.278;2023-04-06T05:46:06;101175.32;;;1.49;65.88
11499;BME280;5806;48.748;9.278;2023-04-06T05:48:33;101179.77;;;1.76;65.30
11499;BME280;5806;48.748;9.278;2023-04-06T05:51:01;101172.84;;;1.82;65.30
11499;BME280;5806;48.748;9.278;2023-04-06T05:53:30;101179.05;;;1.90;65.02
11499;BME280;5806;48.748;9.278;2023-04-06T05:56:01;101179.95;;;1.71;65.05
11499;BME280;5806;48.748;9.278;2023-04-06T05:58:27;101178.03;;;1.91;64.67
11499;BME280;5806;48.748;9.278;2023-04-06T06:00:59;101185.23;;;1.99;64.94
11499;BME280;5806;48.748;9.278;2023-04-06T06:03:26;101185.25;;;1.95;65.01
11499;BME280;5806;48.748;9.278;2023-04-06T06:05:54;101182.32;;;2.08;64.58
11499;BME280;5806;48.748;9.278;2023-04-06T06:08:22;101180.83;;;2.32;64.74
11499;BME280;5806;48.748;9.278;2023-04-06T06:10:50;101185.93;;;2.27;64.46
11499;BME280;5806;48.748;9.278;2023-04-06T06:13:17;101185.66;;;2.18;65.12
11499;BME280;5806;48.748;9.278;2023-04-06T06:15:45;101176.85;;;2.47;64.73
11499;BME280;5806;48.748;9.278;2023-04-06T06:18:12;101175.92;;;2.58;64.39
11499;BME280;5806;48.748;9.278;2023-04-06T06:20:40;101171.36;;;3.18;62.46
11499;BME280;5806;48.748;9.278;2023-04-06T06:23:07;101171.31;;;3.84;60.29
11499;BME280;5806;48.748;9.278;2023-04-06T06:25:35;101161.36;;;5.15;56.53
11499;BME280;5806;48.748;9.278;2023-04-06T06:28:04;101154.73;;;7.41;50.76
11499;BME280;5806;48.748;9.278;2023-04-06T06:30:31;101149.25;;;9.57;45.37
11499;BME280;5806;48.748;9.278;2023-04-06T06:32:59;101161.55;;;8.61;46.18
11499;BME280;5806;48.748;9.278;2023-04-06T06:35:27;101158.66;;;8.06;44.84
11499;BME280;5806;48.748;9.278;2023-04-06T06:37:54;101160.00;;;8.41;46.76
11499;BME280;5806;48.748;9.278;2023-04-06T06:40:21;101157.95;;;8.83;46.06
11499;BME280;5806;48.748;9.278;2023-04-06T06:42:50;101166.41;;;6.63;51.41
11499;BME280;5806;48.748;9.278;2023-04-06T06:45:18;101171.08;;;5.48;53.57
11499;BME280;5806;48.748;9.278;2023-04-06T06:47:46;101168.67;;;5.59;49.97
11499;BME280;5806;48.748;9.278;2023-04-06T06:50:14;101166.42;;;5.35;50.48
11499;BME280;5806;48.748;9.278;2023-04-06T06:52:41;101165.23;;;5.61;51.16
11499;BME280;5806;48.748;9.278;2023-04-06T06:55:10;101162.13;;;5.64;51.99
11499;BME280;5806;48.748;9.278;2023-04-06T06:57:38;101162.84;;;6.20;52.21
11499;BME280;5806;48.748;9.278;2023-04-06T07:00:07;101157.69;;;6.38;47.96
11499;BME280;5806;48.748;9.278;2023-04-06T07:02:37;101155.52;;;6.57;47.67
11499;BME280;5806;48.748;9.278;2023-04-06T07:05:05;101161.05;;;6.53;48.39
11499;BME280;5806;48.748;9.278;2023-04-06T07:07:33;101150.97;;;6.90;47.74
11499;BME280;5806;48.748;9.278;2023-04-06T07:10:01;101151.66;;;6.62;48.83
11499;BME280;5806;48.748;9.278;2023-04-06T07:12:28;101144.91;;;6.94;46.30
11499;BME280;5806;48.748;9.278;2023-04-06T07:14:57;101143.45;;;7.11;48.05
11499;BME280;5806;48.748;9.278;2023-04-06T07:17:25;101141.38;;;7.13;46.56
11499;BME280;5806;48.748;9.278;2023-04-06T07:19:52;101147.00;;;7.31;48.49
11499;BME280;5806;48.748;9.278;2023-04-06T07:22:20;101143.88;;;7.28;46.13
11499;BME280;5806;48.748;9.278;2023-04-06T07:24:47;101140.69;;;7.57;44.38
11499;BME280;5806;48.748;9.278;2023-04-06T07:27:15;101147.12;;;7.75;44.11
11499;BME280;5806;48.748;9.278;2023-04-06T07:29:43;101136.95;;;8.08;45.46
11499;BME280;5806;48.748;9.278;2023-04-06T07:32:10;101140.00;;;8.09;45.07
11499;BME280;5806;48.748;9.278;2023-04-06T07:34:38;101140.55;;;8.02;43.32
11499;BME280;5806;48.748;9.278;2023-04-06T07:37:05;101139.94;;;7.94;43.55
11499;BME280;5806;48.748;9.278;2023-04-06T07:39:33;101134.65;;;8.12;42.77
11499;BME280;5806;48.748;9.278;2023-04-06T07:42:01;101132.20;;;7.97;43.27
11499;BME280;5806;48.748;9.278;2023-04-06T07:44:28;101131.81;;;8.38;42.95
11499;BME280;5806;48.748;9.278;2023-04-06T07:46:56;101135.13;;;8.62;43.27
11499;BME280;5806;48.748;9.278;2023-04-06T07:49:24;101129.38;;;8.61;43.03
11499;BME280;5806;48.748;9.278;2023-04-06T07:51:51;101126.91;;;8.84;43.26
11499;BME280;5806;48.748;9.278;2023-04-06T07:54:19;101128.11;;;9.03;43.05
11499;BME280;5806;48.748;9.278;2023-04-06T07:56:47;101123.74;;;9.11;43.63
11499;BME280;5806;48.748;9.278;2023-04-06T07:59:14;101128.87;;;8.55;42.84
11499;BME280;5806;48.748;9.278;2023-04-06T08:01:41;101133.95;;;8.82;44.46
11499;BME280;5806;48.748;9.278;2023-04-06T08:04:09;101130.64;;;9.14;43.73
11499;BME280;5806;48.748;9.278;2023-04-06T08:06:37;101127.44;;;9.41;42.99
11499;BME280;5806;48.748;9.278;2023-04-06T08:09:04;101125.27;;;9.59;42.59
11499;BME280;5806;48.748;9.278;2023-04-06T08:11:31;101121.50;;;9.78;44.11
11499;BME280;5806;48.748;9.278;2023-04-06T08:13:59;101116.34;;;9.61;41.40
11499;BME280;5806;48.748;9.278;2023-04-06T08:16:26;101120.95;;;9.18;41.13
11499;BME280;5806;48.748;9.278;2023-04-06T08:18:54;101116.16;;;9.47;41.63
11499;BME280;5806;48.748;9.278;2023-04-06T08:21:21;101121.80;;;9.70;42.46
11499;BME280;5806;48.748;9.278;2023-04-06T08:23:49;101120.20;;;9.80;40.84
11499;BME280;5806;48.748;9.278;2023-04-06T08:26:16;101115.89;;;9.73;42.86
11499;BME280;5806;48.748;9.278;2023-04-06T08:28:44;101114.52;;;9.73;40.93
11499;BME280;5806;48.748;9.278;2023-04-06T08:31:11;101118.92;;;9.65;40.74
11499;BME280;5806;48.748;9.278;2023-04-06T08:33:39;101115.78;;;9.70;40.96
11499;BME280;5806;48.748;9.278;2023-04-06T08:36:16;101099.72;;;9.80;40.95
11499;BME280;5806;48.748;9.278;2023-04-06T08:38:40;101102.36;;;9.87;40.72
11499;BME280;5806;48.748;9.278;2023-04-06T08:41:10;101101.40;;;10.08;41.40
11499;BME280;5806;48.748;9.278;2023-04-06T08:43:43;101104.70;;;10.29;41.33
11499;BME280;5806;48.748;9.278;2023-04-06T08:46:11;101108.66;;;9.96;40.28
11499;BME280;5806;48.748;9.278;2023-04-06T08:48:40;101106.14;;;10.04;41.04
11499;BME280;5806;48.748;9.278;2023-04-06T08:51:09;101104.98;;;10.09;41.55
11499;BME280;5806;48.748;9.278;2023-04-06T08:53:37;101096.37;;;10.24;41.86
11499;BME280;5806;48.748;9.278;2023-04-06T08:56:05;101094.79;;;10.07;40.91
11499;BME280;5806;48.748;9.278;2023-04-06T08:58:39;101096.67;;;9.88;41.95
11499;BME280;5806;48.748;9.278;2023-04-06T09:01:09;101092.20;;;9.94;40.47
11499;BME280;5806;48.748;9.278;2023-04-06T09:03:38;101097.73;;;10.14;40.74
11499;BME280;5806;48.748;9.278;2023-04-06T09:06:07;101097.84;;;10.38;41.01
11499;BME280;5806;48.748;9.278;2023-04-06T09:08:38;101092.33;;;10.26;41.47
11499;BME280;5806;48.748;9.278;2023-04-06T09:11:05;101095.52;;;10.53;40.96
11499;BME280;5806;48.748;9.278;2023-04-06T09:13:44;101090.41;;;10.56;40.97
11499;BME280;5806;48.748;9.278;2023-04-06T09:16:03;101086.38;;;10.59;40.56
11499;BME280;5806;48.748;9.278;2023-04-06T09:18:31;101089.41;;;10.80;42.26
11499;BME280;5806;48.748;9.278;2023-04-06T09:21:03;101086.31;;;11.09;42.12
11499;BME280;5806;48.748;9.278;2023-04-06T09:23:31;101079.08;;;11.05;40.48
11499;BME280;5806;48.748;9.278;2023-04-06T09:26:13;101084.33;;;11.07;40.13
11499;BME280;5806;48.748;9.278;2023-04-06T09:31:15;101071.72;;;10.94;41.54
11499;BME280;5806;48.748;9.278;2023-04-06T09:33:45;101078.33;;;11.07;42.32
11499;BME280;5806;48.748;9.278;2023-04-06T09:36:13;101079.31;;;10.92;41.71
11499;BME280;5806;48.748;9.278;2023-04-06T09:39:02;101066.12;;;11.12;42.04
11499;BME280;5806;48.748;9.278;2023-04-06T09:41:31;101073.14;;;11.20;41.38
11499;BME280;5806;48.748;9.278;2023-04-06T09:44:10;101063.34;;;11.33;42.45
11499;BME280;5806;48.748;9.278;2023-04-06T09:46:40;101061.06;;;11.53;42.82
11499;BME280;5806;48.748;9.278;2023-04-06T09:49:08;101070.09;;;11.53;41.43
11499;BME280;5806;48.748;9.278;2023-04-06T09:51:48;101069.16;;;11.36;41.34
11499;BME280;5806;48.748;9.278;2023-04-06T09:54:23;101063.61;;;11.45;42.45
11499;BME280;5806;48.748;9.278;2023-04-06T10:02:41;101069.39;;;11.69;41.59
11499;BME280;5806;48.748;9.278;2023-04-06T10:07:49;101062.84;;;11.47;42.25
11499;BME280;5806;48.748;9.278;2023-04-06T10:10:18;101056.20;;;11.57;41.57
11499;BME280;5806;48.748;9.278;2023-04-06T10:12:45;101057.95;;;11.49;41.32
11499;BME280;5806;48.748;9.278;2023-04-06T10:15:15;101059.69;;;11.41;41.09
11499;BME280;5806;48.748;9.278;2023-04-06T10:17:44;101049.67;;;11.47;43.18
11499;BME280;5806;48.748;9.278;2023-04-06T10:20:34;101056.55;;;11.84;42.21
11499;BME280;5806;48.748;9.278;2023-04-06T10:23:05;101049.07;;;11.93;41.42
11499;BME280;5806;48.748;9.278;2023-04-06T10:25:33;101051.69;;;12.14;41.04
11499;BME280;5806;48.748;9.278;2023-04-06T10:28:05;101052.17;;;12.11;41.36
11499;BME280;5806;48.748;9.278;2023-04-06T10:30:34;101046.71;;;11.85;40.46
11499;BME280;5806;48.748;9.278;2023-04-06T10:33:16;101047.69;;;12.05;42.00
11499;BME280;5806;48.748;9.278;2023-04-06T10:35:41;101049.05;;;12.05;42.03
11499;BME280;5806;48.748;9.278;2023-04-06T10:38:09;101048.32;;;12.23;41.04
11499;BME280;5806;48.748;9.278;2023-04-06T10:40:39;101042.92;;;12.28;41.41
11499;BME280;5806;48.748;9.278;2023-04-06T10:43:23;101050.56;;;12.12;41.23
11499;BME280;5806;48.748;9.278;2023-04-06T10:45:42;101046.70;;;11.97;40.63
11499;BME280;5806;48.748;9.278;2023-04-06T10:48:17;101047.30;;;12.13;40.89
11499;BME280;5806;48.748;9.278;2023-04-06T10:50:48;101041.25;;;12.13;41.13
11499;BME280;5806;48.748;9.278;2023-04-06T10:53:26;101035.42;;;12.38;41.66
11499;BME280;5806;48.748;9.278;2023-04-06T10:55:55;101038.78;;;12.42;39.26
11499;BME280;5806;48.748;9.278;2023-04-06T10:58:29;101030.75;;;12.38;39.62
11499;BME280;5806;48.748;9.278;2023-04-06T11:00:57;101030.38;;;12.32;40.76
11499;BME280;5806;48.748;9.278;2023-04-06T11:03:26;101026.39;;;12.40;40.21
11499;BME280;5806;48.748;9.278;2023-04-06T11:05:53;101033.82;;;12.56;41.12
11499;BME280;5806;48.748;9.278;2023-04-06T11:08:32;101030.34;;;12.30;40.58
11499;BME280;5806;48.748;9.278;2023-04-06T11:11:09;101024.20;;;12.25;41.03
11499;BME280;5806;48.748;9.278;2023-04-06T11:14:01;101025.31;;;12.41;41.40
11499;BME280;5806;48.748;9.278;2023-04-06T11:16:16;101018.28;;;12.31;41.01
11499;BME280;5806;48.748;9.278;2023-04-06T11:18:54;101019.13;;;12.31;40.20
11499;BME280;5806;48.748;9.278;2023-04-06T11:21:40;101027.23;;;12.40;41.98
11499;BME280;5806;48.748;9.278;2023-04-06T11:26:48;101019.66;;;12.61;41.22
11499;BME280;5806;48.748;9.278;2023-04-06T11:29:13;101022.89;;;12.58;41.56
11499;BME280;5806;48.748;9.278;2023-04-06T11:32:00;101022.64;;;12.43;41.86
11499;BME280;5806;48.748;9.278;2023-04-06T11:34:29;101020.63;;;12.39;41.79
11499;BME280;5806;48.748;9.278;2023-04-06T11:36:59;101008.15;;;12.62;41.35
11499;BME280;5806;48.748;9.278;2023-04-06T11:39:29;101013.85;;;12.44;41.20
11499;BME280;5806;48.748;9.278;2023-04-06T11:42:01;101002.86;;;12.58;41.45
11499;BME280;5806;48.748;9.278;2023-04-06T11:44:33;101009.52;;;12.62;42.38
11499;BME280;5806;48.748;9.278;2023-04-06T11:47:02;100996.92;;;12.63;40.69
11499;BME280;5806;48.748;9.278;2023-04-06T11:49:31;101007.30;;;12.61;42.21
11499;BME280;5806;48.748;9.278;2023-04-06T11:52:00;101000.69;;;12.60;41.43
11499;BME280;5806;48.748;9.278;2023-04-06T11:54:32;101008.20;;;12.34;41.20
11499;BME280;5806;48.748;9.278;2023-04-06T11:57:01;101001.95;;;12.38;42.21
11499;BME280;5806;48.748;9.278;2023-04-06T11:59:28;101002.63;;;12.59;41.09
11499;BME280;5806;48.748;9.278;2023-04-06T12:01:57;101006.77;;;12.62;41.66
11499;BME280;5806;48.748;9.278;2023-04-06T12:04:24;101000.48;;;12.64;40.11
11499;BME280;5806;48.748;9.278;2023-04-06T12:06:52;101001.98;;;12.55;40.23
11499;BME280;5806;48.748;9.278;2023-04-06T12:09:19;100999.20;;;12.52;39.37
11499;BME280;5806;48.748;9.278;2023-04-06T12:11:47;100995.12;;;12.55;40.32
11499;BME280;5806;48.748;9.278;2023-04-06T12:14:14;101000.94;;;12.42;40.64
11499;BME280;5806;48.748;9.278;2023-04-06T12:16:42;100991.98;;;12.49;40.86
11499;BME280;5806;48.748;9.278;2023-04-06T12:19:10;100987.34;;;12.49;41.43
11499;BME280;5806;48.748;9.278;2023-04-06T12:21:37;100995.77;;;12.45;41.43
11499;BME280;5806;48.748;9.278;2023-04-06T12:24:05;100995.37;;;12.53;41.05
11499;BME280;5806;48.748;9.278;2023-04-06T12:26:33;100995.65;;;12.54;40.22
11499;BME280;5806;48.748;9.278;2023-04-06T12:29:01;100995.73;;;12.29;41.41
11499;BME280;5806;48.748;9.278;2023-04-06T12:31:30;100989.45;;;12.45;41.39
11499;BME280;5806;48.748;9.278;2023-04-06T12:33:57;100988.80;;;12.54;40.64
11499;BME280;5806;48.748;9.278;2023-04-06T12:36:25;100992.34;;;12.52;40.77
11499;BME280;5806;48.748;9.278;2023-04-06T12:38:52;100993.44;;;12.37;42.28
11499;BME280;5806;48.748;9.278;2023-04-06T12:41:20;100994.08;;;12.58;40.06
11499;BME280;5806;48.748;9.278;2023-04-06T12:43:49;100990.20;;;12.57;40.38
11499;BME280;5806;48.748;9.278;2023-04-06T12:46:16;101001.65;;;12.68;39.49
11499;BME280;5806;48.748;9.278;2023-04-06T12:48:44;100989.79;;;12.65;40.29
11499;BME280;5806;48.748;9.278;2023-04-06T12:51:11;100996.57;;;12.60;38.94
11499;BME280;5806;48.748;9.278;2023-04-06T12:53:39;100994.08;;;12.58;38.96
11499;BME280;5806;48.748;9.278;2023-04-06T12:56:15;100989.47;;;12.61;39.47
11499;BME280;5806;48.748;9.278;2023-04-06T12:58:44;100994.26;;;12.68;37.83
11499;BME280;5806;48.748;9.278;2023-04-06T13:01:12;100987.53;;;12.59;39.35
11499;BME280;5806;48.748;9.278;2023-04-06T13:03:41;100990.93;;;12.50;41.10
11499;BME280;5806;48.748;9.278;2023-04-06T13:06:09;100985.80;;;12.56;39.01
11499;BME280;5806;48.748;9.278;2023-04-06T13:08:38;100983.41;;;12.59;39.93
11499;BME280;5806;48.748;9.278;2023-04-06T13:11:06;100982.83;;;12.74;39.20
11499;BME280;5806;48.748;9.278;2023-04-06T13:13:36;100980.80;;;12.53;40.92
11499;BME280;5806;48.748;9.278;2023-04-06T13:16:08;100977.72;;;12.63;39.88
11499;BME280;5806;48.748;9.278;2023-04-06T13:18:36;100984.09;;;12.69;40.81
11499;BME280;5806;48.748;9.278;2023-04-06T13:21:06;100977.41;;;12.62;40.88
11499;BME280;5806;48.748;9.278;2023-04-06T13:23:34;100985.03;;;12.58;41.17
11499;BME280;5806;48.748;9.278;2023-04-06T13:26:06;100980.20;;;12.48;40.63
11499;BME280;5806;48.748;9.278;2023-04-06T13:28:35;100982.98;;;12.51;40.57